sensor_id;sensor_type;location;lat;lon;timestamp;P1;durP1;ratioP1;P2;durP2;ratioP2
76566;SDS011;65428;53.194;6.132;2023-01-15T00:00:12;10.48;;;1.00;;
76566;SDS011;65428;53.194;6.132;2023-01-15T00:02:38;8.73;;;0.75;;
76566;SDS011;65428;53.194;6.132;2023-01-15T00:05:04;11.07;;;1.15;;
76566;SDS011;65428;53.194;6.132;2023-01-15T00:07:30;13.23;;;1.42;;
76566;SDS011;65428;53.194;6.132;2023-01-15T00:09:55;10.75;;;0.98;;
76566;SDS011;65428;53.194;6.132;2023-01-15T00:12:21;11.63;;;1.58;;
76566;SDS011;65428;53.194;6.132;2023-01-15T00:14:47;9.47;;;1.33;;
76566;SDS011;65428;53.194;6.132;2023-01-15T00:17:12;10.50;;;1.10;;
76566;SDS011;65428;53.194;6.132;2023-01-15T00:19:38;10.20;;;0.80;;
76566;SDS011;65428;53.194;6.132;2023-01-15T00:22:04;10.00;;;0.80;;
76566;SDS011;65428;53.194;6.132;2023-01-15T00:24:30;11.30;;;1.40;;
76566;SDS011;65428;53.194;6.132;2023-01-15T00:27:14;10.10;;;1.13;;
76566;SDS011;65428;53.194;6.132;2023-01-15T00:29:58;10.60;;;1.27;;
76566;SDS011;65428;53.194;6.132;2023-01-15T00:32:23;12.27;;;1.30;;
76566;SDS011;65428;53.194;6.132;2023-01-15T00:34:51;8.20;;;1.10;;
76566;SDS011;65428;53.194;6.132;2023-01-15T00:37:17;11.13;;;1.43;;
76566;SDS011;65428;53.194;6.132;2023-01-15T00:39:43;9.80;;;1.25;;
76566;SDS011;65428;53.194;6.132;2023-01-15T00:42:10;9.45;;;1.05;;
76566;SDS011;65428;53.194;6.132;2023-01-15T00:44:35;11.45;;;1.10;;
76566;SDS011;65428;53.194;6.132;2023-01-15T00:47:01;11.75;;;1.30;;
76566;SDS011;65428;53.194;6.132;2023-01-15T00:49:27;12.98;;;1.38;;
76566;SDS011;65428;53.194;6.132;2023-01-15T00:51:54;10.90;;;1.48;;
76566;SDS011;65428;53.194;6.132;2023-01-15T00:54:20;9.30;;;1.20;;
76566;SDS011;65428;53.194;6.132;2023-01-15T00:56:46;10.98;;;1.35;;
76566;SDS011;65428;53.194;6.132;2023-01-15T00:59:11;12.77;;;1.20;;
76566;SDS011;65428;53.194;6.132;2023-01-15T01:01:38;10.40;;;0.80;;
76566;SDS011;65428;53.194;6.132;2023-01-15T01:04:04;10.77;;;1.20;;
76566;SDS011;65428;53.194;6.132;2023-01-15T01:06:31;12.70;;;1.20;;
76566;SDS011;65428;53.194;6.132;2023-01-15T01:08:56;11.07;;;1.27;;
76566;SDS011;65428;53.194;6.132;2023-01-15T01:11:23;11.33;;;1.40;;
76566;SDS011;65428;53.194;6.132;2023-01-15T01:13:51;13.10;;;2.00;;
76566;SDS011;65428;53.194;6.132;2023-01-15T01:16:21;12.10;;;1.17;;
76566;SDS011;65428;53.194;6.132;2023-01-15T01:18:56;13.35;;;1.40;;
76566;SDS011;65428;53.194;6.132;2023-01-15T01:21:22;14.02;;;1.27;;
76566;SDS011;65428;53.194;6.132;2023-01-15T01:23:49;9.30;;;0.97;;
76566;SDS011;65428;53.194;6.132;2023-01-15T01:26:14;14.53;;;1.90;;
76566;SDS011;65428;53.194;6.132;2023-01-15T01:28:40;10.77;;;1.17;;
76566;SDS011;65428;53.194;6.132;2023-01-15T01:31:07;10.47;;;0.90;;
76566;SDS011;65428;53.194;6.132;2023-01-15T01:33:33;12.20;;;1.57;;
76566;SDS011;65428;53.194;6.132;2023-01-15T01:36:00;12.32;;;1.58;;
76566;SDS011;65428;53.194;6.132;2023-01-15T01:38:26;13.50;;;1.50;;
76566;SDS011;65428;53.194;6.132;2023-01-15T01:40:51;10.68;;;0.85;;
76566;SDS011;65428;53.194;6.132;2023-01-15T01:43:18;12.23;;;1.58;;
76566;SDS011;65428;53.194;6.132;2023-01-15T01:45:46;16.52;;;1.38;;
76566;SDS011;65428;53.194;6.132;2023-01-15T01:48:12;11.85;;;1.40;;
76566;SDS011;65428;53.194;6.132;2023-01-15T01:50:41;10.48;;;1.35;;
76566;SDS011;65428;53.194;6.132;2023-01-15T01:53:10;12.05;;;1.60;;
76566;SDS011;65428;53.194;6.132;2023-01-15T01:55:43;12.40;;;1.42;;
76566;SDS011;65428;53.194;6.132;2023-01-15T01:58:09;10.27;;;1.10;;
76566;SDS011;65428;53.194;6.132;2023-01-15T02:00:37;13.38;;;1.70;;
76566;SDS011;65428;53.194;6.132;2023-01-15T02:03:04;13.00;;;1.17;;
76566;SDS011;65428;53.194;6.132;2023-01-15T02:05:33;11.43;;;1.27;;
76566;SDS011;65428;53.194;6.132;2023-01-15T02:08:02;11.65;;;1.52;;
76566;SDS011;65428;53.194;6.132;2023-01-15T02:10:29;10.73;;;1.30;;
76566;SDS011;65428;53.194;6.132;2023-01-15T02:15:44;12.80;;;1.42;;
76566;SDS011;65428;53.194;6.132;2023-01-15T02:20:51;10.60;;;1.40;;
76566;SDS011;65428;53.194;6.132;2023-01-15T02:26:46;11.68;;;1.45;;
76566;SDS011;65428;53.194;6.132;2023-01-15T02:29:37;14.43;;;1.63;;
76566;SDS011;65428;53.194;6.132;2023-01-15T02:32:29;12.48;;;1.23;;
76566;SDS011;65428;53.194;6.132;2023-01-15T02:35:19;13.57;;;1.13;;
76566;SDS011;65428;53.194;6.132;2023-01-15T02:37:50;13.38;;;1.27;;
76566;SDS011;65428;53.194;6.132;2023-01-15T02:40:18;12.82;;;1.45;;
76566;SDS011;65428;53.194;6.132;2023-01-15T02:42:46;10.95;;;1.13;;
76566;SDS011;65428;53.194;6.132;2023-01-15T02:45:13;14.07;;;1.40;;
76566;SDS011;65428;53.194;6.132;2023-01-15T02:47:43;11.80;;;1.87;;
76566;SDS011;65428;53.194;6.132;2023-01-15T02:50:14;12.07;;;1.30;;
76566;SDS011;65428;53.194;6.132;2023-01-15T02:52:46;13.00;;;1.33;;
76566;SDS011;65428;53.194;6.132;2023-01-15T02:55:23;12.25;;;1.25;;
76566;SDS011;65428;53.194;6.132;2023-01-15T02:57:53;14.35;;;1.88;;
76566;SDS011;65428;53.194;6.132;2023-01-15T03:00:23;16.00;;;1.50;;
76566;SDS011;65428;53.194;6.132;2023-01-15T03:02:52;15.40;;;1.20;;
76566;SDS011;65428;53.194;6.132;2023-01-15T03:05:30;15.93;;;1.70;;
76566;SDS011;65428;53.194;6.132;2023-01-15T03:08:07;15.50;;;1.58;;
76566;SDS011;65428;53.194;6.132;2023-01-15T03:10:38;14.37;;;2.10;;
76566;SDS011;65428;53.194;6.132;2023-01-15T03:13:10;13.18;;;1.40;;
76566;SDS011;65428;53.194;6.132;2023-01-15T03:18:49;12.05;;;1.40;;
76566;SDS011;65428;53.194;6.132;2023-01-15T03:21:18;12.40;;;1.40;;
76566;SDS011;65428;53.194;6.132;2023-01-15T03:23:48;12.90;;;1.20;;
76566;SDS011;65428;53.194;6.132;2023-01-15T03:26:17;14.65;;;1.67;;
76566;SDS011;65428;53.194;6.132;2023-01-15T03:28:43;12.77;;;1.30;;
76566;SDS011;65428;53.194;6.132;2023-01-15T03:31:09;14.63;;;1.95;;
76566;SDS011;65428;53.194;6.132;2023-01-15T03:33:35;14.73;;;1.65;;
76566;SDS011;65428;53.194;6.132;2023-01-15T03:36:01;11.82;;;1.20;;
76566;SDS011;65428;53.194;6.132;2023-01-15T03:38:31;12.30;;;1.45;;
76566;SDS011;65428;53.194;6.132;2023-01-15T03:43:40;14.75;;;1.30;;
76566;SDS011;65428;53.194;6.132;2023-01-15T03:49:03;13.85;;;1.45;;
76566;SDS011;65428;53.194;6.132;2023-01-15T03:52:06;12.55;;;1.23;;
76566;SDS011;65428;53.194;6.132;2023-01-15T03:54:31;10.77;;;1.03;;
76566;SDS011;65428;53.194;6.132;2023-01-15T04:00:24;9.43;;;1.10;;
76566;SDS011;65428;53.194;6.132;2023-01-15T04:02:51;11.15;;;1.38;;
76566;SDS011;65428;53.194;6.132;2023-01-15T04:05:19;10.65;;;0.90;;
76566;SDS011;65428;53.194;6.132;2023-01-15T04:07:46;12.57;;;1.35;;
76566;SDS011;65428;53.194;6.132;2023-01-15T04:10:13;12.73;;;1.45;;
76566;SDS011;65428;53.194;6.132;2023-01-15T04:12:39;13.98;;;2.08;;
76566;SDS011;65428;53.194;6.132;2023-01-15T04:15:05;10.43;;;1.10;;
76566;SDS011;65428;53.194;6.132;2023-01-15T04:17:31;12.15;;;1.05;;
76566;SDS011;65428;53.194;6.132;2023-01-15T04:19:56;14.03;;;1.60;;
76566;SDS011;65428;53.194;6.132;2023-01-15T04:22:22;9.60;;;1.00;;
76566;SDS011;65428;53.194;6.132;2023-01-15T04:24:47;12.10;;;1.83;;
76566;SDS011;65428;53.194;6.132;2023-01-15T04:27:13;13.17;;;1.40;;
76566;SDS011;65428;53.194;6.132;2023-01-15T04:29:39;12.13;;;1.40;;
76566;SDS011;65428;53.194;6.132;2023-01-15T04:32:04;10.48;;;1.33;;
76566;SDS011;65428;53.194;6.132;2023-01-15T04:34:30;10.55;;;0.80;;
76566;SDS011;65428;53.194;6.132;2023-01-15T04:36:56;10.00;;;0.93;;
76566;SDS011;65428;53.194;6.132;2023-01-15T04:39:21;9.57;;;1.20;;
76566;SDS011;65428;53.194;6.132;2023-01-15T04:41:47;10.60;;;1.05;;
76566;SDS011;65428;53.194;6.132;2023-01-15T04:44:32;11.43;;;1.55;;
76566;SDS011;65428;53.194;6.132;2023-01-15T04:46:58;13.30;;;1.40;;
76566;SDS011;65428;53.194;6.132;2023-01-15T04:49:25;9.93;;;1.20;;
76566;SDS011;65428;53.194;6.132;2023-01-15T04:51:51;11.00;;;1.10;;
76566;SDS011;65428;53.194;6.132;2023-01-15T04:54:17;13.35;;;1.02;;
76566;SDS011;65428;53.194;6.132;2023-01-15T04:56:44;13.30;;;1.65;;
76566;SDS011;65428;53.194;6.132;2023-01-15T04:59:11;10.63;;;1.30;;
76566;SDS011;65428;53.194;6.132;2023-01-15T05:01:37;11.25;;;1.27;;
76566;SDS011;65428;53.194;6.132;2023-01-15T05:04:03;11.02;;;1.13;;
76566;SDS011;65428;53.194;6.132;2023-01-15T05:06:29;13.02;;;1.42;;
76566;SDS011;65428;53.194;6.132;2023-01-15T05:08:56;10.40;;;0.95;;
76566;SDS011;65428;53.194;6.132;2023-01-15T05:11:22;10.98;;;1.15;;
76566;SDS011;65428;53.194;6.132;2023-01-15T05:13:48;11.50;;;1.25;;
76566;SDS011;65428;53.194;6.132;2023-01-15T05:18:45;10.38;;;1.00;;
76566;SDS011;65428;53.194;6.132;2023-01-15T05:21:18;10.57;;;1.08;;
76566;SDS011;65428;53.194;6.132;2023-01-15T05:23:47;10.15;;;1.05;;
76566;SDS011;65428;53.194;6.132;2023-01-15T05:26:13;10.13;;;0.90;;
76566;SDS011;65428;53.194;6.132;2023-01-15T05:28:39;11.30;;;1.00;;
76566;SDS011;65428;53.194;6.132;2023-01-15T05:31:06;12.00;;;1.10;;
76566;SDS011;65428;53.194;6.132;2023-01-15T05:33:33;9.35;;;1.42;;
76566;SDS011;65428;53.194;6.132;2023-01-15T05:36:01;12.75;;;0.82;;
76566;SDS011;65428;53.194;6.132;2023-01-15T05:38:31;11.05;;;1.05;;
76566;SDS011;65428;53.194;6.132;2023-01-15T05:40:57;13.77;;;1.23;;
76566;SDS011;65428;53.194;6.132;2023-01-15T05:43:24;15.15;;;1.15;;
76566;SDS011;65428;53.194;6.132;2023-01-15T05:45:49;12.77;;;1.13;;
76566;SDS011;65428;53.194;6.132;2023-01-15T05:48:15;13.90;;;1.60;;
76566;SDS011;65428;53.194;6.132;2023-01-15T05:50:41;13.25;;;1.10;;
76566;SDS011;65428;53.194;6.132;2023-01-15T05:53:06;11.27;;;1.02;;
76566;SDS011;65428;53.194;6.132;2023-01-15T05:55:32;15.83;;;1.37;;
76566;SDS011;65428;53.194;6.132;2023-01-15T05:57:57;8.40;;;0.90;;
76566;SDS011;65428;53.194;6.132;2023-01-15T06:00:23;10.98;;;0.75;;
76566;SDS011;65428;53.194;6.132;2023-01-15T06:02:50;11.90;;;1.17;;
76566;SDS011;65428;53.194;6.132;2023-01-15T06:05:16;13.47;;;1.17;;
76566;SDS011;65428;53.194;6.132;2023-01-15T06:07:48;10.23;;;0.97;;
76566;SDS011;65428;53.194;6.132;2023-01-15T06:10:16;11.85;;;1.30;;
76566;SDS011;65428;53.194;6.132;2023-01-15T06:12:42;10.10;;;1.03;;
76566;SDS011;65428;53.194;6.132;2023-01-15T06:15:09;9.93;;;0.97;;
76566;SDS011;65428;53.194;6.132;2023-01-15T06:17:38;10.38;;;1.48;;
76566;SDS011;65428;53.194;6.132;2023-01-15T06:20:03;9.90;;;1.00;;
76566;SDS011;65428;53.194;6.132;2023-01-15T06:22:29;8.45;;;1.10;;
76566;SDS011;65428;53.194;6.132;2023-01-15T06:24:55;8.63;;;0.83;;
76566;SDS011;65428;53.194;6.132;2023-01-15T06:27:20;11.80;;;1.13;;
76566;SDS011;65428;53.194;6.132;2023-01-15T06:29:46;10.68;;;1.17;;
76566;SDS011;65428;53.194;6.132;2023-01-15T06:32:12;9.17;;;0.90;;
76566;SDS011;65428;53.194;6.132;2023-01-15T06:34:37;8.55;;;0.75;;
76566;SDS011;65428;53.194;6.132;2023-01-15T06:37:05;9.60;;;1.10;;
76566;SDS011;65428;53.194;6.132;2023-01-15T06:39:31;10.82;;;1.00;;
76566;SDS011;65428;53.194;6.132;2023-01-15T06:41:56;10.57;;;1.00;;
76566;SDS011;65428;53.194;6.132;2023-01-15T06:44:41;13.85;;;1.40;;
76566;SDS011;65428;53.194;6.132;2023-01-15T06:47:25;9.45;;;0.90;;
76566;SDS011;65428;53.194;6.132;2023-01-15T06:49:52;8.27;;;0.88;;
76566;SDS011;65428;53.194;6.132;2023-01-15T06:52:19;11.70;;;1.42;;
76566;SDS011;65428;53.194;6.132;2023-01-15T06:54:45;9.07;;;0.60;;
76566;SDS011;65428;53.194;6.132;2023-01-15T06:57:10;10.32;;;0.82;;
76566;SDS011;65428;53.194;6.132;2023-01-15T06:59:36;8.95;;;0.95;;
76566;SDS011;65428;53.194;6.132;2023-01-15T07:02:01;8.87;;;1.00;;
76566;SDS011;65428;53.194;6.132;2023-01-15T07:04:27;10.20;;;1.10;;
76566;SDS011;65428;53.194;6.132;2023-01-15T07:06:53;8.70;;;0.80;;
76566;SDS011;65428;53.194;6.132;2023-01-15T07:09:18;9.27;;;0.87;;
76566;SDS011;65428;53.194;6.132;2023-01-15T07:11:44;8.67;;;0.63;;
76566;SDS011;65428;53.194;6.132;2023-01-15T07:14:16;8.60;;;0.90;;
76566;SDS011;65428;53.194;6.132;2023-01-15T07:16:46;9.40;;;1.08;;
76566;SDS011;65428;53.194;6.132;2023-01-15T07:19:12;9.82;;;1.10;;
76566;SDS011;65428;53.194;6.132;2023-01-15T07:21:38;8.00;;;0.70;;
76566;SDS011;65428;53.194;6.132;2023-01-15T07:24:04;9.15;;;0.70;;
76566;SDS011;65428;53.194;6.132;2023-01-15T07:26:30;6.82;;;0.70;;
76566;SDS011;65428;53.194;6.132;2023-01-15T07:28:56;8.38;;;0.70;;
76566;SDS011;65428;53.194;6.132;2023-01-15T07:31:21;10.07;;;0.77;;
76566;SDS011;65428;53.194;6.132;2023-01-15T07:33:47;8.57;;;0.77;;
76566;SDS011;65428;53.194;6.132;2023-01-15T07:36:13;10.73;;;0.98;;
76566;SDS011;65428;53.194;6.132;2023-01-15T07:38:38;9.75;;;1.00;;
76566;SDS011;65428;53.194;6.132;2023-01-15T07:41:04;8.10;;;0.80;;
76566;SDS011;65428;53.194;6.132;2023-01-15T07:43:48;8.60;;;0.70;;
76566;SDS011;65428;53.194;6.132;2023-01-15T07:46:32;9.20;;;0.70;;
76566;SDS011;65428;53.194;6.132;2023-01-15T07:49:16;8.15;;;1.00;;
76566;SDS011;65428;53.194;6.132;2023-01-15T07:52:00;9.07;;;0.73;;
76566;SDS011;65428;53.194;6.132;2023-01-15T07:54:26;9.83;;;1.00;;
76566;SDS011;65428;53.194;6.132;2023-01-15T07:56:53;10.75;;;0.90;;
76566;SDS011;65428;53.194;6.132;2023-01-15T07:59:20;9.02;;;0.70;;
76566;SDS011;65428;53.194;6.132;2023-01-15T08:01:46;7.85;;;0.80;;
76566;SDS011;65428;53.194;6.132;2023-01-15T08:04:12;10.32;;;0.93;;
76566;SDS011;65428;53.194;6.132;2023-01-15T08:06:38;10.87;;;0.80;;
76566;SDS011;65428;53.194;6.132;2023-01-15T08:09:03;8.57;;;0.93;;
76566;SDS011;65428;53.194;6.132;2023-01-15T08:11:29;12.47;;;0.80;;
76566;SDS011;65428;53.194;6.132;2023-01-15T08:14:14;9.45;;;0.70;;
76566;SDS011;65428;53.194;6.132;2023-01-15T08:16:57;10.02;;;1.20;;
76566;SDS011;65428;53.194;6.132;2023-01-15T08:19:23;8.83;;;0.80;;
76566;SDS011;65428;53.194;6.132;2023-01-15T08:21:49;9.02;;;1.20;;
76566;SDS011;65428;53.194;6.132;2023-01-15T08:24:15;8.82;;;0.82;;
76566;SDS011;65428;53.194;6.132;2023-01-15T08:26:41;7.03;;;0.63;;
76566;SDS011;65428;53.194;6.132;2023-01-15T08:29:07;9.20;;;0.80;;
76566;SDS011;65428;53.194;6.132;2023-01-15T08:31:32;11.23;;;1.02;;
76566;SDS011;65428;53.194;6.132;2023-01-15T08:33:58;8.40;;;0.70;;
76566;SDS011;65428;53.194;6.132;2023-01-15T08:36:25;11.30;;;1.00;;
76566;SDS011;65428;53.194;6.132;2023-01-15T08:38:50;9.88;;;1.00;;
76566;SDS011;65428;53.194;6.132;2023-01-15T08:41:16;11.10;;;0.80;;
76566;SDS011;65428;53.194;6.132;2023-01-15T08:43:42;9.77;;;0.70;;
76566;SDS011;65428;53.194;6.132;2023-01-15T08:46:10;9.75;;;1.40;;
76566;SDS011;65428;53.194;6.132;2023-01-15T08:48:35;8.70;;;0.97;;
76566;SDS011;65428;53.194;6.132;2023-01-15T08:51:05;8.47;;;0.63;;
76566;SDS011;65428;53.194;6.132;2023-01-15T08:53:32;9.40;;;0.90;;
76566;SDS011;65428;53.194;6.132;2023-01-15T08:55:58;9.55;;;1.13;;
76566;SDS011;65428;53.194;6.132;2023-01-15T08:58:26;9.57;;;1.05;;
76566;SDS011;65428;53.194;6.132;2023-01-15T09:00:55;11.60;;;0.80;;
76566;SDS011;65428;53.194;6.132;2023-01-15T09:03:28;11.00;;;0.77;;
76566;SDS011;65428;53.194;6.132;2023-01-15T09:05:53;6.57;;;0.80;;
76566;SDS011;65428;53.194;6.132;2023-01-15T09:08:21;9.77;;;1.53;;
76566;SDS011;65428;53.194;6.132;2023-01-15T09:10:47;9.20;;;1.17;;
76566;SDS011;65428;53.194;6.132;2023-01-15T09:13:13;10.55;;;1.10;;
76566;SDS011;65428;53.194;6.132;2023-01-15T09:15:38;9.00;;;0.93;;
76566;SDS011;65428;53.194;6.132;2023-01-15T09:18:04;9.97;;;0.53;;
76566;SDS011;65428;53.194;6.132;2023-01-15T09:20:29;9.63;;;0.70;;
76566;SDS011;65428;53.194;6.132;2023-01-15T09:22:55;9.20;;;1.17;;
76566;SDS011;65428;53.194;6.132;2023-01-15T09:25:21;10.80;;;1.13;;
76566;SDS011;65428;53.194;6.132;2023-01-15T09:27:48;9.45;;;1.15;;
76566;SDS011;65428;53.194;6.132;2023-01-15T09:30:18;8.05;;;1.20;;
76566;SDS011;65428;53.194;6.132;2023-01-15T09:32:45;9.20;;;0.85;;
76566;SDS011;65428;53.194;6.132;2023-01-15T09:35:12;11.90;;;1.25;;
76566;SDS011;65428;53.194;6.132;2023-01-15T09:37:37;9.17;;;1.10;;
76566;SDS011;65428;53.194;6.132;2023-01-15T09:40:04;10.90;;;1.03;;
76566;SDS011;65428;53.194;6.132;2023-01-15T09:45:15;10.93;;;0.95;;
76566;SDS011;65428;53.194;6.132;2023-01-15T09:50:20;11.43;;;1.40;;
76566;SDS011;65428;53.194;6.132;2023-01-15T09:55:15;9.57;;;1.02;;
76566;SDS011;65428;53.194;6.132;2023-01-15T09:57:48;9.35;;;1.00;;
76566;SDS011;65428;53.194;6.132;2023-01-15T10:00:21;9.13;;;1.25;;
76566;SDS011;65428;53.194;6.132;2023-01-15T10:02:50;10.57;;;1.50;;
76566;SDS011;65428;53.194;6.132;2023-01-15T10:05:18;9.82;;;1.38;;
76566;SDS011;65428;53.194;6.132;2023-01-15T10:10:51;9.13;;;1.00;;
76566;SDS011;65428;53.194;6.132;2023-01-15T10:13:26;10.82;;;1.23;;
76566;SDS011;65428;53.194;6.132;2023-01-15T10:15:59;10.00;;;1.00;;
76566;SDS011;65428;53.194;6.132;2023-01-15T10:18:25;7.22;;;0.77;;
76566;SDS011;65428;53.194;6.132;2023-01-15T10:23:35;8.13;;;0.50;;
76566;SDS011;65428;53.194;6.132;2023-01-15T10:31:23;8.43;;;0.77;;
76566;SDS011;65428;53.194;6.132;2023-01-15T10:37:04;11.15;;;1.17;;
76566;SDS011;65428;53.194;6.132;2023-01-15T10:39:47;12.60;;;1.42;;
76566;SDS011;65428;53.194;6.132;2023-01-15T10:47:51;8.45;;;1.30;;
76566;SDS011;65428;53.194;6.132;2023-01-15T10:50:26;9.30;;;1.15;;
76566;SDS011;65428;53.194;6.132;2023-01-15T10:53:12;9.48;;;1.10;;
76566;SDS011;65428;53.194;6.132;2023-01-15T10:56:29;9.57;;;1.20;;
76566;SDS011;65428;53.194;6.132;2023-01-15T11:01:15;11.45;;;1.13;;
76566;SDS011;65428;53.194;6.132;2023-01-15T11:03:43;10.18;;;1.20;;
76566;SDS011;65428;53.194;6.132;2023-01-15T11:06:16;10.93;;;1.17;;
76566;SDS011;65428;53.194;6.132;2023-01-15T11:08:45;11.20;;;0.90;;
76566;SDS011;65428;53.194;6.132;2023-01-15T11:11:33;9.55;;;0.90;;
76566;SDS011;65428;53.194;6.132;2023-01-15T11:14:30;13.57;;;1.25;;
76566;SDS011;65428;53.194;6.132;2023-01-15T11:20:22;13.02;;;1.20;;
76566;SDS011;65428;53.194;6.132;2023-01-15T11:23:10;7.88;;;0.80;;
76566;SDS011;65428;53.194;6.132;2023-01-15T11:25:46;9.70;;;1.13;;
76566;SDS011;65428;53.194;6.132;2023-01-15T11:28:34;8.82;;;0.88;;
76566;SDS011;65428;53.194;6.132;2023-01-15T11:31:08;12.23;;;1.30;;
76566;SDS011;65428;53.194;6.132;2023-01-15T11:33:35;10.38;;;1.10;;
76566;SDS011;65428;53.194;6.132;2023-01-15T11:36:05;11.93;;;1.30;;
76566;SDS011;65428;53.194;6.132;2023-01-15T11:38:43;10.45;;;0.90;;
76566;SDS011;65428;53.194;6.132;2023-01-15T11:43:52;11.10;;;1.30;;
76566;SDS011;65428;53.194;6.132;2023-01-15T11:46:37;9.30;;;1.02;;
76566;SDS011;65428;53.194;6.132;2023-01-15T11:49:21;10.13;;;1.10;;
76566;SDS011;65428;53.194;6.132;2023-01-15T11:52:07;11.65;;;1.00;;
76566;SDS011;65428;53.194;6.132;2023-01-15T11:54:38;11.55;;;1.00;;
76566;SDS011;65428;53.194;6.132;2023-01-15T11:57:06;12.90;;;1.10;;
76566;SDS011;65428;53.194;6.132;2023-01-15T11:59:32;12.65;;;1.50;;
76566;SDS011;65428;53.194;6.132;2023-01-15T12:01:59;16.58;;;1.70;;
76566;SDS011;65428;53.194;6.132;2023-01-15T12:07:00;16.13;;;1.13;;
76566;SDS011;65428;53.194;6.132;2023-01-15T12:09:34;10.73;;;1.10;;
76566;SDS011;65428;53.194;6.132;2023-01-15T12:15:28;7.70;;;0.68;;
76566;SDS011;65428;53.194;6.132;2023-01-15T12:26:40;10.87;;;0.70;;
76566;SDS011;65428;53.194;6.132;2023-01-15T12:32:18;15.32;;;0.90;;
76566;SDS011;65428;53.194;6.132;2023-01-15T12:34:52;13.32;;;0.93;;
76566;SDS011;65428;53.194;6.132;2023-01-15T12:37:35;14.30;;;1.02;;
76566;SDS011;65428;53.194;6.132;2023-01-15T12:40:16;10.02;;;0.90;;
76566;SDS011;65428;53.194;6.132;2023-01-15T12:42:47;10.15;;;1.02;;
76566;SDS011;65428;53.194;6.132;2023-01-15T12:45:42;9.10;;;0.90;;
76566;SDS011;65428;53.194;6.132;2023-01-15T12:50:56;9.32;;;0.95;;
76566;SDS011;65428;53.194;6.132;2023-01-15T12:53:35;13.70;;;1.25;;
76566;SDS011;65428;53.194;6.132;2023-01-15T12:56:12;11.65;;;1.25;;
76566;SDS011;65428;53.194;6.132;2023-01-15T12:59:12;13.13;;;1.05;;
76566;SDS011;65428;53.194;6.132;2023-01-15T13:04:23;13.20;;;1.00;;
76566;SDS011;65428;53.194;6.132;2023-01-15T13:09:59;11.23;;;0.70;;
76566;SDS011;65428;53.194;6.132;2023-01-15T13:12:31;9.20;;;0.73;;
76566;SDS011;65428;53.194;6.132;2023-01-15T13:14:57;8.47;;;0.80;;
76566;SDS011;65428;53.194;6.132;2023-01-15T13:23:07;9.55;;;1.05;;
76566;SDS011;65428;53.194;6.132;2023-01-15T13:25:41;9.98;;;0.82;;
76566;SDS011;65428;53.194;6.132;2023-01-15T13:33:54;3.88;;;0.20;;
76566;SDS011;65428;53.194;6.132;2023-01-15T13:36:24;4.68;;;0.38;;
76566;SDS011;65428;53.194;6.132;2023-01-15T13:39:04;5.07;;;0.20;;
76566;SDS011;65428;53.194;6.132;2023-01-15T13:41:35;4.25;;;0.20;;
76566;SDS011;65428;53.194;6.132;2023-01-15T13:44:20;3.40;;;0.20;;
76566;SDS011;65428;53.194;6.132;2023-01-15T13:47:02;5.18;;;0.30;;
76566;SDS011;65428;53.194;6.132;2023-01-15T13:49:36;9.93;;;1.10;;
76566;SDS011;65428;53.194;6.132;2023-01-15T13:52:06;14.70;;;1.35;;
76566;SDS011;65428;53.194;6.132;2023-01-15T13:54:44;13.47;;;1.43;;
76566;SDS011;65428;53.194;6.132;2023-01-15T13:57:23;14.32;;;1.40;;
76566;SDS011;65428;53.194;6.132;2023-01-15T13:59:57;17.58;;;1.75;;
76566;SDS011;65428;53.194;6.132;2023-01-15T14:02:27;17.35;;;1.98;;
76566;SDS011;65428;53.194;6.132;2023-01-15T14:04:57;16.67;;;1.67;;
76566;SDS011;65428;53.194;6.132;2023-01-15T14:07:30;19.25;;;2.13;;
76566;SDS011;65428;53.194;6.132;2023-01-15T14:18:02;18.53;;;1.80;;
76566;SDS011;65428;53.194;6.132;2023-01-15T14:24:11;12.77;;;1.92;;
76566;SDS011;65428;53.194;6.132;2023-01-15T14:29:44;11.77;;;1.17;;
76566;SDS011;65428;53.194;6.132;2023-01-15T14:32:34;17.57;;;1.77;;
76566;SDS011;65428;53.194;6.132;2023-01-15T14:35:09;13.20;;;1.30;;
76566;SDS011;65428;53.194;6.132;2023-01-15T14:40:22;11.32;;;1.02;;
76566;SDS011;65428;53.194;6.132;2023-01-15T14:43:09;17.08;;;1.90;;
76566;SDS011;65428;53.194;6.132;2023-01-15T14:45:44;13.68;;;1.30;;
76566;SDS011;65428;53.194;6.132;2023-01-15T14:50:53;15.20;;;1.58;;
76566;SDS011;65428;53.194;6.132;2023-01-15T14:53:44;14.88;;;1.70;;
76566;SDS011;65428;53.194;6.132;2023-01-15T14:56:19;15.57;;;1.70;;
76566;SDS011;65428;53.194;6.132;2023-01-15T15:01:35;12.43;;;1.58;;
76566;SDS011;65428;53.194;6.132;2023-01-15T15:06:43;15.15;;;2.10;;
76566;SDS011;65428;53.194;6.132;2023-01-15T15:09:23;20.05;;;2.40;;
76566;SDS011;65428;53.194;6.132;2023-01-15T15:15:15;15.45;;;1.85;;
76566;SDS011;65428;53.194;6.132;2023-01-15T15:20:34;17.27;;;2.15;;
76566;SDS011;65428;53.194;6.132;2023-01-15T15:23:11;14.67;;;2.20;;
76566;SDS011;65428;53.194;6.132;2023-01-15T15:25:57;16.55;;;1.88;;
76566;SDS011;65428;53.194;6.132;2023-01-15T15:31:21;11.50;;;1.00;;
76566;SDS011;65428;53.194;6.132;2023-01-15T15:33:50;13.00;;;1.20;;
76566;SDS011;65428;53.194;6.132;2023-01-15T15:36:18;12.80;;;1.30;;
76566;SDS011;65428;53.194;6.132;2023-01-15T15:39:02;11.93;;;1.15;;
76566;SDS011;65428;53.194;6.132;2023-01-15T15:41:38;9.30;;;1.02;;
76566;SDS011;65428;53.194;6.132;2023-01-15T15:44:30;7.53;;;0.70;;
76566;SDS011;65428;53.194;6.132;2023-01-15T15:47:34;8.82;;;0.80;;
76566;SDS011;65428;53.194;6.132;2023-01-15T15:50:21;9.43;;;1.02;;
76566;SDS011;65428;53.194;6.132;2023-01-15T15:52:49;9.60;;;0.90;;
76566;SDS011;65428;53.194;6.132;2023-01-15T15:55:16;7.90;;;0.90;;
76566;SDS011;65428;53.194;6.132;2023-01-15T15:57:46;9.63;;;1.08;;
76566;SDS011;65428;53.194;6.132;2023-01-15T16:00:30;9.60;;;1.00;;
76566;SDS011;65428;53.194;6.132;2023-01-15T16:02:59;9.23;;;1.00;;
76566;SDS011;65428;53.194;6.132;2023-01-15T16:05:32;13.95;;;1.20;;
76566;SDS011;65428;53.194;6.132;2023-01-15T16:10:39;9.10;;;0.80;;
76566;SDS011;65428;53.194;6.132;2023-01-15T16:13:05;10.00;;;1.10;;
76566;SDS011;65428;53.194;6.132;2023-01-15T16:15:37;7.32;;;0.82;;
76566;SDS011;65428;53.194;6.132;2023-01-15T16:18:05;8.68;;;1.02;;
76566;SDS011;65428;53.194;6.132;2023-01-15T16:20:40;11.13;;;1.20;;
76566;SDS011;65428;53.194;6.132;2023-01-15T16:26:17;6.80;;;0.80;;
76566;SDS011;65428;53.194;6.132;2023-01-15T16:28:54;7.40;;;0.98;;
76566;SDS011;65428;53.194;6.132;2023-01-15T16:31:21;7.05;;;0.80;;
76566;SDS011;65428;53.194;6.132;2023-01-15T16:33:55;7.13;;;0.77;;
76566;SDS011;65428;53.194;6.132;2023-01-15T16:36:22;6.35;;;0.40;;
76566;SDS011;65428;53.194;6.132;2023-01-15T16:38:49;7.75;;;0.88;;
76566;SDS011;65428;53.194;6.132;2023-01-15T16:41:20;7.55;;;0.55;;
76566;SDS011;65428;53.194;6.132;2023-01-15T16:43:56;9.15;;;0.90;;
76566;SDS011;65428;53.194;6.132;2023-01-15T16:46:24;7.47;;;0.73;;
76566;SDS011;65428;53.194;6.132;2023-01-15T16:49:16;9.73;;;0.93;;
76566;SDS011;65428;53.194;6.132;2023-01-15T16:51:44;10.77;;;0.93;;
76566;SDS011;65428;53.194;6.132;2023-01-15T16:56:55;9.50;;;0.80;;
76566;SDS011;65428;53.194;6.132;2023-01-15T17:02:12;12.13;;;1.30;;
76566;SDS011;65428;53.194;6.132;2023-01-15T17:04:41;7.93;;;0.75;;
76566;SDS011;65428;53.194;6.132;2023-01-15T17:07:15;9.52;;;0.88;;
76566;SDS011;65428;53.194;6.132;2023-01-15T17:09:48;9.40;;;1.00;;
76566;SDS011;65428;53.194;6.132;2023-01-15T17:14:57;6.93;;;0.77;;
76566;SDS011;65428;53.194;6.132;2023-01-15T17:17:39;8.50;;;0.97;;
76566;SDS011;65428;53.194;6.132;2023-01-15T17:20:10;8.95;;;1.05;;
76566;SDS011;65428;53.194;6.132;2023-01-15T17:22:40;9.20;;;1.20;;